Duke Field AFS, FL

10:23 PM CST on February 13, 2016 (GMT -0600)
Sandy Ridge | | Change Station
CLOSE
Current Station
Personal Weather Station
Location: Crestview, FL
Elevation: 157 ft
Nearby Weather Stations

Elev 157 ft 30.71 °N, 86.58 °W | Updated 27 seconds ago

Clear
Clear
41.9 °F
Feels Like 42 °F
N
0.0
Wind Variable Wind from North
Gusts 0.0 mph

Today
High -- | Low -- °F
--% Chance of Precip.
Yesterday
High -- | Low -- °F
Precip. -- in
Pressure 30.38 in
Visibility 10.0 miles
Clouds Clear
Windchill 42 °F
Dew Point 21 °F
Humidity 43%
Rainfall 0.00 in
Snow Depth Not available.
6:28 AM 5:32 PM
Waxing Crescent, 37% visible
METAR KCEW 140353Z AUTO 00000KT 10SM CLR 03/M06 A3037 RMK AO2 SLP286 T00331061
Pressure 30.38 in
Visibility 10.0 miles
Clouds Clear
Windchill 42 °F
Dew Point 21 °F
Humidity 43%
Rainfall 0.00 in
Snow Depth Not available.
6:28 AM 5:32 PM
Waxing Crescent, 37% visible
METAR KCEW 140353Z AUTO 00000KT 10SM CLR 03/M06 A3037 RMK AO2 SLP286 T00331061

10-Day Weather Forecast

Almanac

Astronomy

Feb. 13, 2016 Rise Set
Actual Time
Civil Twilight
Nautical Twilight
Astronomical Twilight
Moon
Length of Visible Light
Length of Day
Tomorrow will be .
, % of the Moon is Illuminated

Today's Extremes

State Highs State Lows

Community

WunderPhotos

Upload Photos

1,892,746 photos uploaded!

WunderBlog® & News

Nearby

Air Quality

  Air Quality AQ Index Pollutant
Not available.

Snow Depth

Station Depth Elevation

Earthquake Activity

City Distance Mag. Time & Date
Minimum magnitude displayed is 2.5.

Coastal Water Temperatures

Place Temperature

Stations

Nearby Weather Stations

Station Location Temp. Windchill Dew Point Humidity Wind Precip. Elev Updated Type
                   

Watches & Warnings

There are currently no watches in effect.